createdAt,value
2019-05-22T00:00:46.908Z,28.60
2019-05-22T00:03:19.932Z,21.40
2019-05-22T00:05:50.358Z,26.20
2019-05-22T00:08:20.841Z,19.40
2019-05-22T00:10:50.800Z,15.00
2019-05-22T00:13:23.275Z,27.40
2019-05-22T00:15:54.851Z,20.60
2019-05-22T00:18:26.052Z,22.40
2019-05-22T00:20:57.821Z,21.60
2019-05-22T00:23:28.883Z,21.80
2019-05-22T00:25:58.677Z,21.80
2019-05-22T00:28:28.385Z,18.00
2019-05-22T00:30:59.301Z,21.60
2019-05-22T00:33:30.159Z,26.20
2019-05-22T00:36:00.412Z,19.80
2019-05-22T00:38:31.893Z,20.00
2019-05-22T00:41:03.702Z,18.20
2019-05-22T00:43:39.689Z,21.60
2019-05-22T00:46:12.473Z,24.00
2019-05-22T00:48:44.481Z,10.00
2019-05-22T00:51:32.532Z,21.20
2019-05-22T00:54:11.432Z,18.20
2019-05-22T00:56:51.752Z,12.60
2019-05-22T00:59:27.257Z,17.60
2019-05-22T01:02:02.610Z,21.00
2019-05-22T01:04:38.429Z,16.00
2019-05-22T01:07:12.709Z,18.20
2019-05-22T01:09:44.665Z,19.20
2019-05-22T01:12:22.136Z,14.60
2019-05-22T01:14:53.517Z,18.00
2019-05-22T01:17:24.531Z,13.40
2019-05-22T01:19:54.744Z,15.00
2019-05-22T01:22:26.664Z,21.60
2019-05-22T01:24:57.248Z,15.80
2019-05-22T01:27:29.652Z,18.80
2019-05-22T01:30:00.421Z,18.60
2019-05-22T01:32:45.889Z,18.40
2019-05-22T01:35:16.807Z,20.80
2019-05-22T01:37:47.140Z,26.00
2019-05-22T01:40:27.169Z,20.60
2019-05-22T01:42:59.273Z,16.40
2019-05-22T01:45:29.853Z,16.40
2019-05-22T01:48:02.835Z,12.40
2019-05-22T01:50:51.516Z,21.40
2019-05-22T01:53:24.331Z,21.80
2019-05-22T01:56:00.045Z,19.20
2019-05-22T01:58:31.787Z,18.60
2019-05-22T02:01:03.579Z,18.20
2019-05-22T02:03:37.072Z,16.80
2019-05-22T02:06:07.461Z,15.80
2019-05-22T02:08:41.892Z,16.40
2019-05-22T02:11:13.137Z,16.00
2019-05-22T02:13:46.450Z,18.60
2019-05-22T02:16:17.197Z,14.60
2019-05-22T02:18:49.669Z,9.00
2019-05-22T02:21:20.298Z,17.20
2019-05-22T02:23:50.058Z,18.80
2019-05-22T02:26:20.113Z,17.00
2019-05-22T02:28:51.242Z,17.40
2019-05-22T02:31:23.607Z,13.00
2019-05-22T02:34:03.894Z,12.20
2019-05-22T02:36:35.146Z,14.00
2019-05-22T02:39:10.889Z,17.60
2019-05-22T02:41:44.896Z,14.20
2019-05-22T02:44:15.014Z,13.40
2019-05-22T02:46:45.045Z,17.40
2019-05-22T02:49:14.875Z,18.40
2019-05-22T02:51:45.787Z,12.80
2019-05-22T02:54:30.069Z,16.40
2019-05-22T02:56:59.898Z,13.80
2019-05-22T02:59:31.607Z,15.80
2019-05-22T03:02:02.338Z,12.80
2019-05-22T03:04:54.966Z,10.80
2019-05-22T03:07:25.912Z,10.00
2019-05-22T03:09:55.713Z,15.00
2019-05-22T03:12:28.817Z,12.80
2019-05-22T03:14:58.462Z,12.40
2019-05-22T03:17:31.145Z,9.60
2019-05-22T03:20:04.511Z,10.00
2019-05-22T03:22:40.877Z,10.80
2019-05-22T03:25:16.331Z,13.40
2019-05-22T03:27:48.129Z,12.40
2019-05-22T03:30:21.604Z,9.20
2019-05-22T03:32:52.349Z,10.40
2019-05-22T03:35:22.716Z,10.40
2019-05-22T03:37:53.466Z,9.60
2019-05-22T03:40:23.221Z,9.00
2019-05-22T03:42:52.997Z,12.00
2019-05-22T03:45:23.746Z,3.80
2019-05-22T03:47:54.402Z,9.80
2019-05-22T03:50:26.726Z,9.40
2019-05-22T03:52:58.169Z,5.20
2019-05-22T03:55:28.187Z,12.40
2019-05-22T03:57:58.018Z,10.40
2019-05-22T04:00:29.376Z,14.60
2019-05-22T04:02:59.192Z,26.00
2019-05-22T04:05:29.570Z,21.40
2019-05-22T04:08:00.316Z,18.80
2019-05-22T04:10:35.106Z,20.80
2019-05-22T04:13:06.620Z,14.00
2019-05-22T04:15:36.670Z,22.00
2019-05-22T04:18:16.604Z,15.20
2019-05-22T04:20:46.945Z,17.20
2019-05-22T04:23:16.917Z,20.00
2019-05-22T04:25:47.146Z,25.60
2019-05-22T04:28:17.132Z,31.00
2019-05-22T04:30:48.263Z,31.00
2019-05-22T04:33:18.296Z,18.60
2019-05-22T04:35:49.096Z,26.80
2019-05-22T04:38:18.924Z,26.80
2019-05-22T04:40:49.987Z,22.60
2019-05-22T04:43:21.560Z,30.80
2019-05-22T04:45:51.998Z,15.40
2019-05-22T04:48:22.080Z,30.00
2019-05-22T04:50:53.436Z,26.40
2019-05-22T04:53:23.327Z,30.00
2019-05-22T04:55:53.413Z,16.80
2019-05-22T04:58:26.801Z,17.60
2019-05-22T05:00:57.140Z,14.80
2019-05-22T05:03:27.268Z,32.40
2019-05-22T05:05:57.654Z,26.60
2019-05-22T05:08:30.233Z,25.60
2019-05-22T05:11:03.180Z,20.60
2019-05-22T05:13:33.050Z,18.60
2019-05-22T05:16:03.178Z,24.20
2019-05-22T05:18:33.309Z,24.40
2019-05-22T05:21:03.384Z,22.80
2019-05-22T05:23:33.635Z,24.80
2019-05-22T05:26:03.390Z,24.60
2019-05-22T05:28:33.737Z,24.20
2019-05-22T05:31:06.185Z,26.20
2019-05-22T05:33:54.170Z,26.00
2019-05-22T05:36:23.808Z,25.00
2019-05-22T05:38:53.922Z,26.80
2019-05-22T05:41:23.533Z,26.80
2019-05-22T05:43:53.580Z,30.20
2019-05-22T05:46:23.269Z,26.80
2019-05-22T05:48:54.751Z,24.40
2019-05-22T05:51:25.956Z,32.20
2019-05-22T05:53:59.897Z,22.00
2019-05-22T05:56:30.489Z,31.40
2019-05-22T05:59:00.787Z,28.00
2019-05-22T06:01:33.487Z,28.40
2019-05-22T06:04:04.199Z,29.40
2019-05-22T06:07:17.100Z,19.40
2019-05-22T06:09:48.533Z,23.80
2019-05-22T06:12:19.308Z,21.00
2019-05-22T06:14:49.482Z,18.80
2019-05-22T06:17:57.587Z,25.80
2019-05-22T06:20:27.746Z,16.00
2019-05-22T06:23:42.568Z,20.60
2019-05-22T06:26:15.585Z,24.40
2019-05-22T06:28:47.168Z,22.80
2019-05-22T06:31:24.740Z,21.40
2019-05-22T06:33:54.945Z,27.00
2019-05-22T06:36:27.126Z,23.60
2019-05-22T06:39:03.663Z,17.80
2019-05-22T06:41:35.652Z,18.40
2019-05-22T06:44:37.149Z,30.20
2019-05-22T06:47:13.685Z,24.00
2019-05-22T06:49:46.798Z,27.40
2019-05-22T06:52:17.239Z,31.80
2019-05-22T06:54:47.043Z,22.00
2019-05-22T06:57:23.165Z,29.80
2019-05-22T07:00:11.267Z,15.40
2019-05-22T07:02:25.033Z,37.80
2019-05-22T07:04:54.601Z,24.20
2019-05-22T07:07:29.851Z,21.20
2019-05-22T07:10:00.453Z,29.40
2019-05-22T07:12:30.953Z,26.00
2019-05-22T07:15:50.510Z,32.80
2019-05-22T07:18:29.989Z,29.20
2019-05-22T07:21:00.161Z,23.20
2019-05-22T07:23:30.770Z,27.80
2019-05-22T07:26:01.124Z,34.20
2019-05-22T07:28:31.497Z,29.20
2019-05-22T07:31:01.583Z,26.20
2019-05-22T07:33:31.752Z,33.40
2019-05-22T07:36:12.210Z,27.40
2019-05-22T07:38:33.676Z,30.00
2019-05-22T07:41:04.011Z,38.40
2019-05-22T07:43:34.111Z,30.20
2019-05-22T07:46:03.841Z,25.20
2019-05-22T07:48:33.690Z,28.00
2019-05-22T07:51:05.809Z,33.00
2019-05-22T07:53:35.836Z,18.40
2019-05-22T07:56:08.858Z,24.80
2019-05-22T07:58:39.258Z,22.40
2019-05-22T08:01:09.765Z,34.80
2019-05-22T08:03:39.643Z,33.80
2019-05-22T08:06:12.733Z,30.40
2019-05-22T08:08:43.212Z,39.40
2019-05-22T08:11:32.622Z,41.00
2019-05-22T08:14:04.584Z,32.00
2019-05-22T08:16:34.409Z,33.40
2019-05-22T08:19:04.145Z,35.40
2019-05-22T08:21:36.589Z,36.20
2019-05-22T08:24:07.303Z,31.20
2019-05-22T08:26:53.131Z,31.60
2019-05-22T08:31:38.160Z,48.00
2019-05-22T08:34:08.283Z,28.40
2019-05-22T08:36:38.841Z,38.20
2019-05-22T08:39:11.010Z,28.20
2019-05-22T08:41:42.718Z,37.60
2019-05-22T08:44:16.937Z,32.80
2019-05-22T08:46:46.101Z,42.40
2019-05-22T08:49:15.597Z,37.00
2019-05-22T08:51:45.673Z,30.80
2019-05-22T08:54:16.717Z,40.80
2019-05-22T08:56:49.759Z,39.20
2019-05-22T08:59:20.447Z,32.20
2019-05-22T09:01:50.844Z,40.00
2019-05-22T09:04:21.237Z,42.40
2019-05-22T09:06:50.787Z,29.60
2019-05-22T09:09:21.055Z,35.00
2019-05-22T09:11:50.622Z,36.40
2019-05-22T09:14:21.734Z,41.20
2019-05-22T09:16:52.154Z,28.00
2019-05-22T09:19:22.251Z,32.60
2019-05-22T09:21:52.421Z,29.60
2019-05-22T09:24:23.918Z,28.60
2019-05-22T09:26:53.419Z,39.80
2019-05-22T09:29:25.038Z,23.60
2019-05-22T09:31:56.443Z,39.80
2019-05-22T09:34:27.513Z,36.40
2019-05-22T09:36:57.182Z,39.60
2019-05-22T09:39:26.857Z,25.40
2019-05-22T09:41:56.997Z,27.40
2019-05-22T09:44:28.358Z,31.80
2019-05-22T09:46:58.003Z,30.00
2019-05-22T09:49:27.719Z,28.80
2019-05-22T09:51:59.144Z,38.60
2019-05-22T09:54:28.712Z,36.40
2019-05-22T09:57:00.601Z,33.00
2019-05-22T09:59:30.864Z,30.40
2019-05-22T10:02:01.741Z,36.40
2019-05-22T10:04:32.697Z,37.80
2019-05-22T10:07:02.714Z,28.00
2019-05-22T10:09:32.562Z,32.20
2019-05-22T10:12:03.145Z,27.40
2019-05-22T10:14:33.643Z,32.80
2019-05-22T10:17:07.863Z,22.40
2019-05-22T10:19:37.885Z,28.60
2019-05-22T10:22:08.753Z,32.00
2019-05-22T10:24:38.553Z,35.00
2019-05-22T10:27:09.300Z,23.40
2019-05-22T10:29:39.220Z,28.40
2019-05-22T10:32:10.162Z,32.60
2019-05-22T10:34:39.762Z,32.00
2019-05-22T10:37:16.686Z,31.60
2019-05-22T10:39:50.367Z,27.60
2019-05-22T10:42:20.095Z,28.00
2019-05-22T10:44:50.566Z,29.20
2019-05-22T10:47:20.334Z,23.60
2019-05-22T10:49:50.028Z,37.00
2019-05-22T10:52:19.835Z,19.20
2019-05-22T10:54:49.500Z,30.80
2019-05-22T10:57:19.825Z,31.80
2019-05-22T10:59:49.917Z,27.20
2019-05-22T11:02:19.788Z,34.80
2019-05-22T11:04:49.837Z,28.20
2019-05-22T11:07:22.054Z,26.40
2019-05-22T11:09:52.041Z,32.80
2019-05-22T11:12:21.888Z,27.40
2019-05-22T11:14:52.219Z,33.20
2019-05-22T11:17:22.095Z,29.80
2019-05-22T11:19:51.685Z,27.60
2019-05-22T11:22:21.382Z,32.20
2019-05-22T11:24:51.158Z,35.60
2019-05-22T11:27:20.884Z,33.00
2019-05-22T11:29:50.677Z,24.20
2019-05-22T11:32:21.095Z,28.40
2019-05-22T11:34:51.230Z,35.60
2019-05-22T11:37:21.576Z,38.80
2019-05-22T11:39:54.225Z,35.20
2019-05-22T11:42:24.450Z,34.00
2019-05-22T11:44:53.971Z,27.00
2019-05-22T11:47:23.659Z,27.00
2019-05-22T11:49:53.228Z,34.60
2019-05-22T11:52:23.032Z,31.60
2019-05-22T11:54:52.655Z,27.00
2019-05-22T11:57:22.665Z,28.20
2019-05-22T11:59:53.131Z,30.40
2019-05-22T12:02:24.341Z,29.40
2019-05-22T12:04:54.266Z,29.20
2019-05-22T12:07:24.587Z,33.20
2019-05-22T12:09:54.640Z,35.60
2019-05-22T12:12:24.833Z,35.60
2019-05-22T12:14:54.557Z,34.00
2019-05-22T12:17:38.078Z,36.00
2019-05-22T12:20:05.206Z,36.80
2019-05-22T12:22:37.682Z,34.00
2019-05-22T12:25:07.539Z,34.00
2019-05-22T12:27:39.514Z,22.00
2019-05-22T12:30:09.243Z,30.60
2019-05-22T12:32:40.404Z,37.20
2019-05-22T12:35:10.271Z,34.40
2019-05-22T12:37:41.772Z,30.20
2019-05-22T12:40:17.369Z,34.20
2019-05-22T12:42:47.332Z,38.40
2019-05-22T12:45:25.272Z,38.40
2019-05-22T12:50:31.270Z,37.80
2019-05-22T12:53:02.535Z,39.20
2019-05-22T12:55:32.674Z,37.40
2019-05-22T12:58:02.514Z,31.00
2019-05-22T13:00:33.795Z,42.60
2019-05-22T13:03:08.008Z,36.40
2019-05-22T13:05:45.604Z,35.40
2019-05-22T13:08:15.325Z,28.20
2019-05-22T13:10:46.445Z,39.80
2019-05-22T13:13:16.435Z,38.00
2019-05-22T13:15:46.426Z,34.80
2019-05-22T13:18:18.122Z,32.20
2019-05-22T13:20:48.390Z,29.60
2019-05-22T13:23:18.386Z,39.20
2019-05-22T13:25:50.265Z,33.40
2019-05-22T13:28:20.033Z,32.60
2019-05-22T13:30:53.051Z,31.00
2019-05-22T13:33:25.246Z,37.00
2019-05-22T13:35:57.782Z,27.80
2019-05-22T13:38:28.151Z,36.20
2019-05-22T13:40:58.508Z,27.00
2019-05-22T13:43:30.152Z,34.20
2019-05-22T13:46:00.120Z,36.60
2019-05-22T13:48:29.969Z,33.20
2019-05-22T13:51:00.277Z,38.60
2019-05-22T13:53:30.279Z,31.00
2019-05-22T13:56:00.437Z,38.40
2019-05-22T13:58:33.810Z,35.40
2019-05-22T23:00:48.748Z,29.60
2019-05-22T23:03:22.081Z,27.00
2019-05-22T23:05:52.825Z,31.40
2019-05-22T23:08:25.525Z,27.00
2019-05-22T23:10:58.212Z,23.80
2019-05-22T23:13:28.598Z,24.00
2019-05-22T23:15:59.188Z,26.00
2019-05-22T23:19:07.142Z,27.40
2019-05-22T23:21:36.285Z,31.20
2019-05-22T23:24:05.407Z,33.40
2019-05-22T23:26:35.608Z,31.00
2019-05-22T23:29:08.885Z,32.20
2019-05-22T23:31:40.559Z,36.20
2019-05-22T23:34:11.736Z,31.60
2019-05-22T23:36:41.615Z,30.20
2019-05-22T23:39:13.111Z,33.00
2019-05-22T23:41:43.324Z,28.00
2019-05-22T23:44:13.770Z,32.80
2019-05-22T23:46:44.043Z,31.40
2019-05-22T23:49:14.268Z,25.00
2019-05-22T23:51:44.706Z,30.20
2019-05-22T23:54:14.876Z,34.00
2019-05-22T23:56:44.999Z,32.20
2019-05-22T23:59:16.877Z,34.60
